Weather at Kushinagar International Airport

Public forecast

Using degrees Celsius for public forecast. Weather courtesy of forecast.io.

Current aviation weather report (METAR) for Kushinagar International Airport

Report is more than 6 hours old.

2024/05/18 13:00 (retrieved 10 hours ago)

VEKI 181300Z VRB03KT 4000 HZ NSC 35/20 Q0998 NOSIG

Closest aviation forecast (TAF) to Kushinagar International Airport

Forecast is more than 6 hours old.

Closest forecast is Gorakhpur Airport, 23.7 nm (43.8 km) W.

2024/05/18 12:00 (retrieved 11 hours ago)

TAF VEGK 180930Z 1812/1824 27010KT 6000 SCT020 BKN200 BECMG 1822/1824 VRB02KT 4000 HZ SCT015 SCT090